Terminal Aerodrome Forecast
Issued by NWS

Home | Current Version | Previous Version | Text Only | Print | Product List | Glossary On
Versions: 1 2 3 4 5 6 7 8 9 10 11 12 13 14 15 16
000
FTUS46 KMTR 210500
TAFOAK
TAF
KOAK 210520Z 2106/2212 29008KT P6SM FEW010 SCT200
     FM212000 26012KT P6SM BKN200
     FM220400 24008KT P6SM SCT030 BKN120
     FM220900 19005KT P6SM BKN030=

USA.gov is the U.S. government's official web portal to all federal, state and local government web resources and services.